sensor_id;sensor_type;location;lat;lon;timestamp;pressure;altitude;pressure_sealevel;temperature;humidity
7407;BME280;3745;56.964;24.128;2023-03-25T00:01:58;99423.00;;;7.06;100.00
7407;BME280;3745;56.964;24.128;2023-03-25T00:04:23;99348.97;;;6.56;100.00
7407;BME280;3745;56.964;24.128;2023-03-25T00:06:54;99380.97;;;6.81;100.00
7407;BME280;3745;56.964;24.128;2023-03-25T00:09:21;99422.13;;;6.97;100.00
7407;BME280;3745;56.964;24.128;2023-03-25T00:11:49;99217.81;;;5.71;100.00
7407;BME280;3745;56.964;24.128;2023-03-25T00:14:15;99412.03;;;6.94;100.00
7407;BME280;3745;56.964;24.128;2023-03-25T00:16:42;99380.91;;;6.69;100.00
7407;BME280;3745;56.964;24.128;2023-03-25T00:19:15;99348.91;;;6.44;100.00
7407;BME280;3745;56.964;24.128;2023-03-25T00:21:40;99403.59;;;6.83;100.00
7407;BME280;3745;56.964;24.128;2023-03-25T00:24:09;99394.38;;;6.83;100.00
7407;BME280;3745;56.964;24.128;2023-03-25T00:26:37;99359.84;;;6.50;100.00
7407;BME280;3745;56.964;24.128;2023-03-25T00:29:07;99343.03;;;6.39;100.00
7407;BME280;3745;56.964;24.128;2023-03-25T00:31:33;99417.78;;;6.75;100.00
7407;BME280;3745;56.964;24.128;2023-03-25T00:33:59;99332.09;;;6.37;100.00
7407;BME280;3745;56.964;24.128;2023-03-25T00:36:25;99417.84;;;6.79;100.00
7407;BME280;3745;56.964;24.128;2023-03-25T00:38:51;99396.75;;;6.61;100.00
7407;BME280;3745;56.964;24.128;2023-03-25T00:41:19;99337.09;;;6.34;100.00
7407;BME280;3745;56.964;24.128;2023-03-25T00:43:54;99416.13;;;6.77;100.00
7407;BME280;3745;56.964;24.128;2023-03-25T00:46:22;99358.94;;;6.44;100.00
7407;BME280;3745;56.964;24.128;2023-03-25T00:48:49;99332.88;;;6.25;100.00
7407;BME280;3745;56.964;24.128;2023-03-25T00:51:15;99354.78;;;6.44;100.00
7407;BME280;3745;56.964;24.128;2023-03-25T00:53:44;99355.59;;;6.39;100.00
7407;BME280;3745;56.964;24.128;2023-03-25T00:56:10;99411.06;;;6.72;100.00
7407;BME280;3745;56.964;24.128;2023-03-25T00:58:39;99380.81;;;6.57;100.00
7407;BME280;3745;56.964;24.128;2023-03-25T01:01:13;99410.25;;;6.75;100.00
7407;BME280;3745;56.964;24.128;2023-03-25T01:03:40;99411.03;;;6.68;100.00
7407;BME280;3745;56.964;24.128;2023-03-25T01:06:16;99295.06;;;6.03;100.00
7407;BME280;3745;56.964;24.128;2023-03-25T01:08:43;99409.38;;;6.71;100.00
7407;BME280;3745;56.964;24.128;2023-03-25T01:11:24;99270.53;;;5.74;100.00
7407;BME280;3745;56.964;24.128;2023-03-25T01:13:51;99416.88;;;6.65;100.00
7407;BME280;3745;56.964;24.128;2023-03-25T01:16:16;99414.34;;;6.62;100.00
7407;BME280;3745;56.964;24.128;2023-03-25T01:18:45;99416.88;;;6.64;100.00
7407;BME280;3745;56.964;24.128;2023-03-25T01:21:11;99358.03;;;6.34;100.00
7407;BME280;3745;56.964;24.128;2023-03-25T01:23:37;99419.38;;;6.62;100.00
7407;BME280;3745;56.964;24.128;2023-03-25T01:26:03;99384.06;;;6.44;100.00
7407;BME280;3745;56.964;24.128;2023-03-25T01:28:28;99385.72;;;6.39;100.00
7407;BME280;3745;56.964;24.128;2023-03-25T01:31:05;99420.19;;;6.57;100.00
7407;BME280;3745;56.964;24.128;2023-03-25T01:33:31;99385.69;;;6.36;100.00
7407;BME280;3745;56.964;24.128;2023-03-25T01:36:00;99363.88;;;6.29;100.00
7407;BME280;3745;56.964;24.128;2023-03-25T01:38:27;99405.88;;;6.48;100.00
7407;BME280;3745;56.964;24.128;2023-03-25T01:40:55;99373.91;;;6.26;100.00
7407;BME280;3745;56.964;24.128;2023-03-25T01:43:21;99399.16;;;6.47;100.00
7407;BME280;3745;56.964;24.128;2023-03-25T01:45:48;99405.03;;;6.44;100.00
7407;BME280;3745;56.964;24.128;2023-03-25T01:48:21;99400.84;;;6.45;100.00
7407;BME280;3745;56.964;24.128;2023-03-25T01:50:53;99330.97;;;5.92;100.00
7407;BME280;3745;56.964;24.128;2023-03-25T01:53:20;99406.59;;;6.30;100.00
7407;BME280;3745;56.964;24.128;2023-03-25T01:55:45;99399.06;;;6.32;100.00
7407;BME280;3745;56.964;24.128;2023-03-25T01:58:14;99402.41;;;6.34;100.00
7407;BME280;3745;56.964;24.128;2023-03-25T02:00:42;99398.25;;;6.34;100.00
7407;BME280;3745;56.964;24.128;2023-03-25T02:03:09;99368.81;;;6.17;100.00
7407;BME280;3745;56.964;24.128;2023-03-25T02:05:53;99404.09;;;6.35;100.00
7407;BME280;3745;56.964;24.128;2023-03-25T02:08:22;99400.78;;;6.36;100.00
7407;BME280;3745;56.964;24.128;2023-03-25T02:10:48;99377.13;;;6.13;100.00
7407;BME280;3745;56.964;24.128;2023-03-25T02:13:14;99372.97;;;6.16;100.00
7407;BME280;3745;56.964;24.128;2023-03-25T02:35:08;99334.34;;;5.96;100.00
7407;BME280;3745;56.964;24.128;2023-03-25T02:40:28;99378.94;;;6.29;100.00
7407;BME280;3745;56.964;24.128;2023-03-25T02:43:06;99333.50;;;5.95;100.00
7407;BME280;3745;56.964;24.128;2023-03-25T02:45:38;99380.63;;;6.30;100.00
7407;BME280;3745;56.964;24.128;2023-03-25T02:48:21;99340.28;;;6.06;100.00
7407;BME280;3745;56.964;24.128;2023-03-25T02:50:54;99378.91;;;6.23;100.00
7407;BME280;3745;56.964;24.128;2023-03-25T02:53:28;99343.56;;;5.98;100.00
7407;BME280;3745;56.964;24.128;2023-03-25T02:55:57;99378.84;;;6.17;100.00
7407;BME280;3745;56.964;24.128;2023-03-25T02:58:26;99375.53;;;6.21;100.00
7407;BME280;3745;56.964;24.128;2023-03-25T03:00:54;99209.78;;;5.14;100.00
7407;BME280;3745;56.964;24.128;2023-03-25T03:03:26;99292.22;;;5.65;100.00
7407;BME280;3745;56.964;24.128;2023-03-25T03:05:56;99307.31;;;5.72;100.00
7407;BME280;3745;56.964;24.128;2023-03-25T03:11:15;99273.53;;;5.35;100.00
7407;BME280;3745;56.964;24.128;2023-03-25T03:17:16;99382.94;;;6.07;100.00
7407;BME280;3745;56.964;24.128;2023-03-25T03:20:14;99388.00;;;6.09;100.00
7407;BME280;3745;56.964;24.128;2023-03-25T03:22:49;99378.81;;;6.12;100.00
7407;BME280;3745;56.964;24.128;2023-03-25T03:28:09;99398.88;;;6.08;100.00
7407;BME280;3745;56.964;24.128;2023-03-25T03:30:46;99321.44;;;5.61;100.00
7407;BME280;3745;56.964;24.128;2023-03-25T03:33:20;99393.81;;;6.05;100.00
7407;BME280;3745;56.964;24.128;2023-03-25T03:35:53;99392.13;;;6.04;100.00
7407;BME280;3745;56.964;24.128;2023-03-25T03:38:25;99222.22;;;5.02;100.00
7407;BME280;3745;56.964;24.128;2023-03-25T03:40:58;99295.41;;;5.48;100.00
7407;BME280;3745;56.964;24.128;2023-03-25T03:43:30;99403.88;;;6.08;100.00
7407;BME280;3745;56.964;24.128;2023-03-25T03:46:01;99392.09;;;6.00;100.00
7407;BME280;3745;56.964;24.128;2023-03-25T03:48:37;99277.72;;;5.35;100.00
7407;BME280;3745;56.964;24.128;2023-03-25T03:51:08;99338.25;;;5.68;100.00
7407;BME280;3745;56.964;24.128;2023-03-25T03:53:39;99397.16;;;6.04;100.00
7407;BME280;3745;56.964;24.128;2023-03-25T03:56:09;99348.38;;;5.77;100.00
7407;BME280;3745;56.964;24.128;2023-03-25T03:58:39;99322.19;;;5.54;100.00
7407;BME280;3745;56.964;24.128;2023-03-25T04:01:14;99328.91;;;5.55;100.00
7407;BME280;3745;56.964;24.128;2023-03-25T04:03:50;99421.31;;;5.94;100.00
7407;BME280;3745;56.964;24.128;2023-03-25T04:07:07;99336.38;;;5.49;100.00
7407;BME280;3745;56.964;24.128;2023-03-25T04:12:03;99413.91;;;6.05;100.00
7407;BME280;3745;56.964;24.128;2023-03-25T04:14:30;99338.16;;;5.59;100.00
7407;BME280;3745;56.964;24.128;2023-03-25T04:16:56;99370.91;;;5.73;100.00
7407;BME280;3745;56.964;24.128;2023-03-25T04:19:24;99354.91;;;5.63;100.00
7407;BME280;3745;56.964;24.128;2023-03-25T04:21:50;99351.53;;;5.58;100.00
7407;BME280;3745;56.964;24.128;2023-03-25T04:24:16;99358.25;;;5.62;100.00
7407;BME280;3745;56.964;24.128;2023-03-25T04:26:44;99413.75;;;5.89;100.00
7407;BME280;3745;56.964;24.128;2023-03-25T04:29:10;99447.34;;;6.00;100.00
7407;BME280;3745;56.964;24.128;2023-03-25T04:31:38;99431.25;;;5.85;100.00
7407;BME280;3745;56.964;24.128;2023-03-25T04:34:14;99455.78;;;6.06;100.00
7407;BME280;3745;56.964;24.128;2023-03-25T04:36:39;99435.53;;;5.90;100.00
7407;BME280;3745;56.964;24.128;2023-03-25T04:39:08;99346.25;;;5.34;100.00
7407;BME280;3745;56.964;24.128;2023-03-25T04:41:34;99469.19;;;6.08;100.00
7407;BME280;3745;56.964;24.128;2023-03-25T04:44:00;99418.63;;;5.77;100.00
7407;BME280;3745;56.964;24.128;2023-03-25T04:46:25;99399.31;;;5.69;100.00
7407;BME280;3745;56.964;24.128;2023-03-25T04:48:51;99425.47;;;5.87;100.00
7407;BME280;3745;56.964;24.128;2023-03-25T04:51:18;99485.19;;;6.22;100.00
7407;BME280;3745;56.964;24.128;2023-03-25T04:53:44;99481.84;;;6.18;100.00
7407;BME280;3745;56.964;24.128;2023-03-25T04:56:12;99412.72;;;5.72;100.00
7407;BME280;3745;56.964;24.128;2023-03-25T04:58:41;99488.53;;;6.19;100.00
7407;BME280;3745;56.964;24.128;2023-03-25T05:01:18;99388.41;;;5.65;100.00
7407;BME280;3745;56.964;24.128;2023-03-25T05:03:45;99483.38;;;6.04;100.00
7407;BME280;3745;56.964;24.128;2023-03-25T05:06:16;99482.59;;;6.11;100.00
7407;BME280;3745;56.964;24.128;2023-03-25T05:08:42;99511.22;;;6.27;100.00
7407;BME280;3745;56.964;24.128;2023-03-25T05:11:07;99505.28;;;6.17;100.00
7407;BME280;3745;56.964;24.128;2023-03-25T05:13:33;99490.13;;;6.13;100.00
7407;BME280;3745;56.964;24.128;2023-03-25T05:15:59;99526.41;;;6.39;100.00
7407;BME280;3745;56.964;24.128;2023-03-25T05:18:25;99401.81;;;5.70;100.00
7407;BME280;3745;56.964;24.128;2023-03-25T05:20:51;99518.03;;;6.38;100.00
7407;BME280;3745;56.964;24.128;2023-03-25T05:23:18;99420.44;;;5.87;100.00
7407;BME280;3745;56.964;24.128;2023-03-25T05:25:47;99479.44;;;6.32;100.00
7407;BME280;3745;56.964;24.128;2023-03-25T05:28:14;99505.53;;;6.44;100.00
7407;BME280;3745;56.964;24.128;2023-03-25T05:30:43;99476.06;;;6.27;100.00
7407;BME280;3745;56.964;24.128;2023-03-25T05:33:13;99530.00;;;6.65;100.00
7407;BME280;3745;56.964;24.128;2023-03-25T05:35:42;99481.03;;;6.21;100.00
7407;BME280;3745;56.964;24.128;2023-03-25T05:38:09;99504.66;;;6.41;100.00
7407;BME280;3745;56.964;24.128;2023-03-25T05:40:42;99311.16;;;5.34;100.00
7407;BME280;3745;56.964;24.128;2023-03-25T05:43:09;99429.00;;;6.08;100.00
7407;BME280;3745;56.964;24.128;2023-03-25T05:45:35;99512.44;;;6.71;100.00
7407;BME280;3745;56.964;24.128;2023-03-25T05:48:01;99526.78;;;6.81;100.00
7407;BME280;3745;56.964;24.128;2023-03-25T05:50:27;99506.56;;;6.69;100.00
7407;BME280;3745;56.964;24.128;2023-03-25T05:52:53;99536.94;;;6.93;100.00
7407;BME280;3745;56.964;24.128;2023-03-25T05:55:21;99528.50;;;6.85;100.00
7407;BME280;3745;56.964;24.128;2023-03-25T05:57:47;99529.28;;;6.81;100.00
7407;BME280;3745;56.964;24.128;2023-03-25T06:00:15;99525.88;;;6.73;100.00
7407;BME280;3745;56.964;24.128;2023-03-25T06:02:41;99388.81;;;6.09;100.00
7407;BME280;3745;56.964;24.128;2023-03-25T06:05:19;99478.09;;;6.70;100.00
7407;BME280;3745;56.964;24.128;2023-03-25T06:07:48;99508.38;;;6.85;100.00
7407;BME280;3745;56.964;24.128;2023-03-25T06:10:15;99516.81;;;6.93;100.00
7407;BME280;3745;56.964;24.128;2023-03-25T06:12:45;99553.88;;;7.19;100.00
7407;BME280;3745;56.964;24.128;2023-03-25T06:15:15;99496.66;;;6.87;100.00
7407;BME280;3745;56.964;24.128;2023-03-25T06:17:54;99462.13;;;6.65;100.00
7407;BME280;3745;56.964;24.128;2023-03-25T06:20:20;99488.25;;;6.85;100.00
7407;BME280;3745;56.964;24.128;2023-03-25T06:22:48;99555.63;;;7.26;100.00
7407;BME280;3745;56.964;24.128;2023-03-25T06:25:16;99564.88;;;7.31;100.00
7407;BME280;3745;56.964;24.128;2023-03-25T06:27:44;99520.34;;;7.17;100.00
7407;BME280;3745;56.964;24.128;2023-03-25T06:30:12;99559.06;;;7.43;100.00
7407;BME280;3745;56.964;24.128;2023-03-25T06:32:39;99559.03;;;7.37;100.00
7407;BME280;3745;56.964;24.128;2023-03-25T06:35:07;99522.06;;;7.27;100.00
7407;BME280;3745;56.964;24.128;2023-03-25T06:37:33;99550.72;;;7.50;100.00
7407;BME280;3745;56.964;24.128;2023-03-25T06:40:00;99523.84;;;7.46;100.00
7407;BME280;3745;56.964;24.128;2023-03-25T06:42:26;99305.19;;;6.15;100.00
7407;BME280;3745;56.964;24.128;2023-03-25T06:44:53;99432.16;;;6.95;100.00
7407;BME280;3745;56.964;24.128;2023-03-25T06:47:21;99576.94;;;7.90;100.00
7407;BME280;3745;56.964;24.128;2023-03-25T06:49:50;99475.91;;;7.23;100.00
7407;BME280;3745;56.964;24.128;2023-03-25T06:52:17;99592.94;;;7.99;100.00
7407;BME280;3745;56.964;24.128;2023-03-25T06:54:46;99594.63;;;8.09;100.00
7407;BME280;3745;56.964;24.128;2023-03-25T06:57:11;99589.56;;;8.06;100.00
7407;BME280;3745;56.964;24.128;2023-03-25T06:59:37;99576.97;;;8.06;100.00
7407;BME280;3745;56.964;24.128;2023-03-25T07:02:02;99598.88;;;8.21;100.00
7407;BME280;3745;56.964;24.128;2023-03-25T07:04:28;99468.53;;;7.58;100.00
7407;BME280;3745;56.964;24.128;2023-03-25T07:06:54;99567.78;;;8.14;100.00
7407;BME280;3745;56.964;24.128;2023-03-25T07:09:19;99603.16;;;8.36;100.00
7407;BME280;3745;56.964;24.128;2023-03-25T07:11:45;99613.28;;;8.54;100.00
7407;BME280;3745;56.964;24.128;2023-03-25T07:14:11;99529.94;;;8.01;100.00
7407;BME280;3745;56.964;24.128;2023-03-25T07:16:36;99619.19;;;8.57;100.00
7407;BME280;3745;56.964;24.128;2023-03-25T07:19:02;99616.66;;;8.62;100.00
7407;BME280;3745;56.964;24.128;2023-03-25T07:21:27;99628.41;;;8.54;100.00
7407;BME280;3745;56.964;24.128;2023-03-25T07:23:53;99483.66;;;7.64;100.00
7407;BME280;3745;56.964;24.128;2023-03-25T07:26:19;99552.66;;;8.14;100.00
7407;BME280;3745;56.964;24.128;2023-03-25T07:28:45;99588.91;;;8.50;100.00
7407;BME280;3745;56.964;24.128;2023-03-25T07:31:13;99601.53;;;8.68;100.00
7407;BME280;3745;56.964;24.128;2023-03-25T07:33:40;99635.22;;;9.00;100.00
7407;BME280;3745;56.964;24.128;2023-03-25T07:36:07;99584.75;;;8.79;100.00
7407;BME280;3745;56.964;24.128;2023-03-25T07:38:34;99622.59;;;9.06;100.00
7407;BME280;3745;56.964;24.128;2023-03-25T07:41:19;99620.09;;;9.24;100.00
7407;BME280;3745;56.964;24.128;2023-03-25T07:43:45;99628.47;;;9.45;100.00
7407;BME280;3745;56.964;24.128;2023-03-25T07:46:10;99485.53;;;8.80;100.00
7407;BME280;3745;56.964;24.128;2023-03-25T07:48:36;99608.25;;;9.69;100.00
7407;BME280;3745;56.964;24.128;2023-03-25T07:51:02;99623.34;;;9.93;100.00
7407;BME280;3745;56.964;24.128;2023-03-25T07:53:27;99621.59;;;10.07;100.00
7407;BME280;3745;56.964;24.128;2023-03-25T07:55:53;99631.72;;;10.13;100.00
7407;BME280;3745;56.964;24.128;2023-03-25T07:58:19;99625.78;;;10.19;100.00
7407;BME280;3745;56.964;24.128;2023-03-25T08:00:45;99601.38;;;10.04;100.00
7407;BME280;3745;56.964;24.128;2023-03-25T08:03:12;99605.66;;;9.90;100.00
7407;BME280;3745;56.964;24.128;2023-03-25T08:05:44;99660.31;;;10.12;100.00
7407;BME280;3745;56.964;24.128;2023-03-25T08:08:10;99621.63;;;9.98;100.00
7407;BME280;3745;56.964;24.128;2023-03-25T08:10:35;99525.75;;;9.65;100.00
7407;BME280;3745;56.964;24.128;2023-03-25T08:13:04;99625.63;;;10.51;100.00
7407;BME280;3745;56.964;24.128;2023-03-25T08:15:29;99658.34;;;10.81;100.00
7407;BME280;3745;56.964;24.128;2023-03-25T08:17:55;99663.44;;;10.78;100.00
7407;BME280;3745;56.964;24.128;2023-03-25T08:20:21;99634.84;;;10.67;100.00
7407;BME280;3745;56.964;24.128;2023-03-25T08:22:47;99659.16;;;10.87;100.00
7407;BME280;3745;56.964;24.128;2023-03-25T08:25:13;99568.47;;;10.24;100.00
7407;BME280;3745;56.964;24.128;2023-03-25T08:27:39;99681.13;;;10.81;100.00
7407;BME280;3745;56.964;24.128;2023-03-25T08:30:05;99646.63;;;10.68;100.00
7407;BME280;3745;56.964;24.128;2023-03-25T08:32:35;99654.16;;;10.75;100.00
7407;BME280;3745;56.964;24.128;2023-03-25T08:35:03;99658.44;;;10.66;100.00
7407;BME280;3745;56.964;24.128;2023-03-25T08:37:32;99700.63;;;10.61;100.00
7407;BME280;3745;56.964;24.128;2023-03-25T08:40:06;99655.25;;;10.33;100.00
7407;BME280;3745;56.964;24.128;2023-03-25T08:42:35;99640.09;;;10.18;100.00
7407;BME280;3745;56.964;24.128;2023-03-25T08:45:02;99679.66;;;10.42;100.00
7407;BME280;3745;56.964;24.128;2023-03-25T08:47:28;99710.72;;;10.67;100.00
7407;BME280;3745;56.964;24.128;2023-03-25T08:49:53;99704.00;;;10.63;100.00
7407;BME280;3745;56.964;24.128;2023-03-25T08:52:19;99629.94;;;10.27;100.00
7407;BME280;3745;56.964;24.128;2023-03-25T08:54:45;99669.56;;;10.31;100.00
7407;BME280;3745;56.964;24.128;2023-03-25T08:57:11;99636.75;;;10.07;100.00
7407;BME280;3745;56.964;24.128;2023-03-25T08:59:36;99723.41;;;10.58;100.00
7407;BME280;3745;56.964;24.128;2023-03-25T09:02:02;99693.91;;;10.60;100.00
7407;BME280;3745;56.964;24.128;2023-03-25T09:04:28;99650.16;;;10.37;100.00
7407;BME280;3745;56.964;24.128;2023-03-25T09:06:55;99734.13;;;11.05;100.00
7407;BME280;3745;56.964;24.128;2023-03-25T09:09:21;99737.47;;;11.16;100.00
7407;BME280;3745;56.964;24.128;2023-03-25T09:11:47;99727.44;;;10.98;100.00
7407;BME280;3745;56.964;24.128;2023-03-25T09:14:13;99665.19;;;10.70;100.00
7407;BME280;3745;56.964;24.128;2023-03-25T09:16:39;99730.69;;;11.18;100.00
7407;BME280;3745;56.964;24.128;2023-03-25T09:19:05;99734.81;;;11.30;100.00
7407;BME280;3745;56.964;24.128;2023-03-25T09:21:32;99741.50;;;11.40;100.00
7407;BME280;3745;56.964;24.128;2023-03-25T09:23:58;99743.97;;;11.48;100.00
7407;BME280;3745;56.964;24.128;2023-03-25T09:26:23;99708.75;;;11.14;100.00
7407;BME280;3745;56.964;24.128;2023-03-25T09:28:50;99754.25;;;11.31;100.00
7407;BME280;3745;56.964;24.128;2023-03-25T09:31:16;99729.03;;;11.11;100.00
7407;BME280;3745;56.964;24.128;2023-03-25T09:33:42;99573.56;;;10.07;100.00
7407;BME280;3745;56.964;24.128;2023-03-25T09:36:08;99646.78;;;10.34;100.00
7407;BME280;3745;56.964;24.128;2023-03-25T09:38:34;99753.50;;;11.14;100.00
7407;BME280;3745;56.964;24.128;2023-03-25T09:41:03;99730.88;;;10.88;100.00
7407;BME280;3745;56.964;24.128;2023-03-25T09:46:35;99712.16;;;11.16;100.00
7407;BME280;3745;56.964;24.128;2023-03-25T09:49:02;99759.09;;;11.63;100.00
7407;BME280;3745;56.964;24.128;2023-03-25T09:51:30;99746.41;;;11.64;100.00
7407;BME280;3745;56.964;24.128;2023-03-25T09:56:40;99733.09;;;11.38;100.00
7407;BME280;3745;56.964;24.128;2023-03-25T09:59:19;99681.66;;;11.28;100.00
7407;BME280;3745;56.964;24.128;2023-03-25T10:07:38;99764.25;;;12.43;100.00
7407;BME280;3745;56.964;24.128;2023-03-25T10:10:34;99721.84;;;12.53;100.00
7407;BME280;3745;56.964;24.128;2023-03-25T10:16:00;99764.28;;;13.12;100.00
7407;BME280;3745;56.964;24.128;2023-03-25T10:24:28;99721.66;;;12.70;100.00
7407;BME280;3745;56.964;24.128;2023-03-25T10:27:17;99755.31;;;12.85;100.00
7407;BME280;3745;56.964;24.128;2023-03-25T10:29:51;99730.75;;;12.86;100.00
7407;BME280;3745;56.964;24.128;2023-03-25T10:32:35;99756.63;;;13.14;100.00
7407;BME280;3745;56.964;24.128;2023-03-25T10:35:04;99754.22;;;13.03;100.00
7407;BME280;3745;56.964;24.128;2023-03-25T10:37:34;99730.69;;;12.90;100.00
7407;BME280;3745;56.964;24.128;2023-03-25T10:40:22;99756.13;;;12.86;100.00
7407;BME280;3745;56.964;24.128;2023-03-25T10:42:58;99563.13;;;11.61;100.00
7407;BME280;3745;56.964;24.128;2023-03-25T10:45:30;99749.50;;;12.76;100.00
7407;BME280;3745;56.964;24.128;2023-03-25T10:48:05;99660.38;;;12.31;100.00
7407;BME280;3745;56.964;24.128;2023-03-25T10:50:32;99725.78;;;12.77;100.00
7407;BME280;3745;56.964;24.128;2023-03-25T10:52:58;99729.28;;;12.70;100.00
7407;BME280;3745;56.964;24.128;2023-03-25T10:55:27;99681.28;;;12.50;100.00
7407;BME280;3745;56.964;24.128;2023-03-25T10:57:55;99735.91;;;12.80;100.00
7407;BME280;3745;56.964;24.128;2023-03-25T11:00:21;99709.13;;;12.58;100.00
7407;BME280;3745;56.964;24.128;2023-03-25T11:02:49;99737.50;;;12.87;100.00
7407;BME280;3745;56.964;24.128;2023-03-25T11:05:18;99739.28;;;12.82;100.00
7407;BME280;3745;56.964;24.128;2023-03-25T11:08:07;99732.63;;;12.72;100.00
7407;BME280;3745;56.964;24.128;2023-03-25T11:10:34;99729.44;;;12.58;100.00
7407;BME280;3745;56.964;24.128;2023-03-25T11:13:00;99664.56;;;12.35;100.00
7407;BME280;3745;56.964;24.128;2023-03-25T11:15:35;99725.16;;;12.61;100.00
7407;BME280;3745;56.964;24.128;2023-03-25T11:20:59;99722.88;;;12.38;100.00
7407;BME280;3745;56.964;24.128;2023-03-25T11:23:32;99726.34;;;12.31;100.00
7407;BME280;3745;56.964;24.128;2023-03-25T11:26:05;99670.84;;;12.04;100.00
7407;BME280;3745;56.964;24.128;2023-03-25T11:28:43;99721.00;;;12.52;100.00
7407;BME280;3745;56.964;24.128;2023-03-25T11:31:16;99720.84;;;12.65;100.00
7407;BME280;3745;56.964;24.128;2023-03-25T11:33:45;99723.06;;;12.90;100.00
7407;BME280;3745;56.964;24.128;2023-03-25T11:36:28;99668.22;;;12.79;100.00
7407;BME280;3745;56.964;24.128;2023-03-25T11:38:59;99712.06;;;12.90;100.00
7407;BME280;3745;56.964;24.128;2023-03-25T11:41:34;99708.59;;;12.97;100.00
7407;BME280;3745;56.964;24.128;2023-03-25T11:44:02;99706.81;;;13.02;100.00
7407;BME280;3745;56.964;24.128;2023-03-25T11:46:30;99708.19;;;13.27;100.00
7407;BME280;3745;56.964;24.128;2023-03-25T11:49:07;99631.53;;;12.99;100.00
7407;BME280;3745;56.964;24.128;2023-03-25T11:51:33;99670.66;;;13.41;100.00
7407;BME280;3745;56.964;24.128;2023-03-25T11:54:03;99699.31;;;13.52;100.00
7407;BME280;3745;56.964;24.128;2023-03-25T11:56:36;99648.88;;;13.28;100.00
7407;BME280;3745;56.964;24.128;2023-03-25T12:01:49;99642.25;;;13.18;100.00
7407;BME280;3745;56.964;24.128;2023-03-25T12:04:21;99691.69;;;13.51;100.00
7407;BME280;3745;56.964;24.128;2023-03-25T12:07:08;99650.13;;;13.56;100.00
7407;BME280;3745;56.964;24.128;2023-03-25T12:09:35;99644.69;;;13.75;100.00
7407;BME280;3745;56.964;24.128;2023-03-25T12:26:10;99611.41;;;14.28;100.00
7407;BME280;3745;56.964;24.128;2023-03-25T12:43:09;99662.66;;;14.10;100.00
7407;BME280;3745;56.964;24.128;2023-03-25T12:45:52;99682.09;;;14.14;100.00
7407;BME280;3745;56.964;24.128;2023-03-25T13:07:32;99657.91;;;13.44;100.00
7407;BME280;3745;56.964;24.128;2023-03-25T13:10:18;99677.13;;;13.61;100.00
7407;BME280;3745;56.964;24.128;2023-03-25T13:12:50;99682.06;;;13.70;100.00
7407;BME280;3745;56.964;24.128;2023-03-25T13:15:44;99674.94;;;13.90;100.00
7407;BME280;3745;56.964;24.128;2023-03-25T13:18:25;99679.50;;;14.17;100.00
7407;BME280;3745;56.964;24.128;2023-03-25T13:21:14;99679.97;;;14.37;100.00
7407;BME280;3745;56.964;24.128;2023-03-25T13:23:42;99671.94;;;14.55;100.00
7407;BME280;3745;56.964;24.128;2023-03-25T13:26:12;99662.16;;;14.37;100.00
7407;BME280;3745;56.964;24.128;2023-03-25T13:28:51;99657.63;;;14.07;100.00
7407;BME280;3745;56.964;24.128;2023-03-25T13:31:27;99676.31;;;14.06;100.00
7407;BME280;3745;56.964;24.128;2023-03-25T13:40:16;99656.25;;;13.91;100.00
7407;BME280;3745;56.964;24.128;2023-03-25T13:44:57;99611.16;;;13.54;100.00
7407;BME280;3745;56.964;24.128;2023-03-25T13:48:08;99673.25;;;13.89;100.00
7407;BME280;3745;56.964;24.128;2023-03-25T13:50:31;99671.28;;;14.03;100.00
7407;BME280;3745;56.964;24.128;2023-03-25T13:55:34;99649.94;;;13.66;100.00
7407;BME280;3745;56.964;24.128;2023-03-25T14:01:03;99672.78;;;13.69;100.00
7407;BME280;3745;56.964;24.128;2023-03-25T14:09:36;99684.22;;;13.43;100.00
7407;BME280;3745;56.964;24.128;2023-03-25T14:12:13;99680.72;;;13.47;100.00
7407;BME280;3745;56.964;24.128;2023-03-25T14:14:45;99646.25;;;13.33;100.00
7407;BME280;3745;56.964;24.128;2023-03-25T14:17:15;99652.34;;;13.24;100.00
7407;BME280;3745;56.964;24.128;2023-03-25T14:19:49;99630.59;;;13.05;100.00
7407;BME280;3745;56.964;24.128;2023-03-25T14:22:22;99627.16;;;13.09;100.00
7407;BME280;3745;56.964;24.128;2023-03-25T14:24:49;99583.56;;;12.80;100.00
7407;BME280;3745;56.964;24.128;2023-03-25T14:27:32;99643.97;;;13.19;100.00
7407;BME280;3745;56.964;24.128;2023-03-25T14:30:05;99668.41;;;13.25;100.00
7407;BME280;3745;56.964;24.128;2023-03-25T14:32:40;99664.94;;;13.32;100.00
7407;BME280;3745;56.964;24.128;2023-03-25T14:43:32;99670.72;;;13.38;100.00
7407;BME280;3745;56.964;24.128;2023-03-25T14:46:14;99674.00;;;13.46;100.00
7407;BME280;3745;56.964;24.128;2023-03-25T14:48:53;99662.50;;;13.24;100.00
7407;BME280;3745;56.964;24.128;2023-03-25T14:56:55;99667.59;;;13.23;100.00
7407;BME280;3745;56.964;24.128;2023-03-25T14:59:26;99644.31;;;12.95;100.00
7407;BME280;3745;56.964;24.128;2023-03-25T15:01:59;99672.25;;;12.93;100.00
7407;BME280;3745;56.964;24.128;2023-03-25T15:04:30;99661.28;;;12.90;100.00
7407;BME280;3745;56.964;24.128;2023-03-25T15:06:58;99673.00;;;13.00;100.00
7407;BME280;3745;56.964;24.128;2023-03-25T15:09:29;99678.06;;;13.00;100.00
7407;BME280;3745;56.964;24.128;2023-03-25T15:11:58;99663.06;;;12.83;100.00
7407;BME280;3745;56.964;24.128;2023-03-25T15:14:33;99684.09;;;12.93;100.00
7407;BME280;3745;56.964;24.128;2023-03-25T15:17:06;99674.72;;;12.98;100.00
7407;BME280;3745;56.964;24.128;2023-03-25T15:20:26;99673.03;;;12.97;100.00
7407;BME280;3745;56.964;24.128;2023-03-25T15:25:47;99646.28;;;12.75;100.00
7407;BME280;3745;56.964;24.128;2023-03-25T15:32:07;99680.16;;;12.71;100.00
7407;BME280;3745;56.964;24.128;2023-03-25T15:34:36;99582.66;;;12.24;100.00
7407;BME280;3745;56.964;24.128;2023-03-25T15:38:00;99668.22;;;12.77;100.00
7407;BME280;3745;56.964;24.128;2023-03-25T15:46:15;99497.22;;;11.64;100.00
7407;BME280;3745;56.964;24.128;2023-03-25T15:51:55;99676.81;;;12.69;100.00
7407;BME280;3745;56.964;24.128;2023-03-25T15:54:47;99658.31;;;12.61;100.00
7407;BME280;3745;56.964;24.128;2023-03-25T16:00:25;99664.47;;;12.43;100.00
7407;BME280;3745;56.964;24.128;2023-03-25T16:03:12;99579.72;;;11.92;100.00